Park City, UT (84068)

12:38 PM MST on December 04, 2016 (GMT -0700)
MesoWest | | Change Station

Elev 9250 ft 40.65 °N, 111.56 °W | Updated 1 hour ago

Overcast
Overcast
28.0 °F
Feels Like 23 °F
N
4.0
Wind Variable Wind from ENE
Gusts 13.0 mph

Today
High -- | Low -- °F
--% Chance of Precip.
Yesterday
High -- | Low -- °F
Precip. -- in
Pressure 30.08 in
Visibility 10.0 miles
Clouds Overcast 7500 ft
Windchill 23 °F
Dew Point 15.0 °F
Humidity 57%
Rainfall in
Snow Depth Not available.
7:34 AM 4:58 PM
Waxing Crescent, 25% visible
METAR K36U 041935Z AUTO 00000KT 10SM OVC075 M03/M07 A3008 RMK AO2
Pressure 30.08 in
Visibility 10.0 miles
Clouds Overcast 7500 ft
Windchill 23 °F
Dew Point 15.0 °F
Humidity 57%
Rainfall in
Snow Depth Not available.
7:34 AM 4:58 PM
Waxing Crescent, 25% visible
METAR K36U 041935Z AUTO 00000KT 10SM OVC075 M03/M07 A3008 RMK AO2

10-Day Weather Forecast

Almanac

Astronomy

Dec. 04, 2016 Rise Set
Actual Time
Civil Twilight
Nautical Twilight
Astronomical Twilight
Moon
Length of Visible Light
Length of Day
Tomorrow will be .
, % of the Moon is Illuminated

Today's Extremes

State Highs State Lows

Community

WunderPhotos

Upload Photos

1,955,650 photos uploaded!

WunderBlog® & News

Nearby

Air Quality

  Air Quality AQ Index Pollutant
Not available.

Snow Depth

Station Depth Elevation

Earthquake Activity

City Distance Mag. Time & Date
Minimum magnitude displayed is 2.5.

Coastal Water Temperatures

Place Temperature

Stations

Nearby Weather Stations

Station Location Temp. Windchill Dew Point Humidity Wind Precip. Elev Updated Type
                   

Watches & Warnings

There are currently no watches in effect.